createdAt,value
2022-08-29T00:04:36.120Z,2.15
2022-08-29T00:09:27.841Z,2.50
2022-08-29T00:14:23.289Z,2.50
2022-08-29T00:19:15.445Z,2.47
2022-08-29T00:24:07.445Z,2.22
2022-08-29T00:28:59.057Z,2.13
2022-08-29T00:33:52.307Z,1.92
2022-08-29T00:38:44.170Z,2.10
2022-08-29T00:43:37.398Z,2.72
2022-08-29T00:48:29.653Z,2.30
2022-08-29T00:53:30.317Z,3.45
2022-08-29T00:58:27.819Z,2.30
2022-08-29T01:03:20.010Z,2.28
2022-08-29T01:08:12.244Z,2.60
2022-08-29T01:13:06.177Z,2.40
2022-08-29T01:18:00.275Z,1.80
2022-08-29T01:23:19.089Z,1.67
2022-08-29T01:28:18.951Z,1.42
2022-08-29T01:33:10.707Z,1.42
2022-08-29T01:38:03.681Z,0.90
2022-08-29T01:42:57.618Z,1.10
2022-08-29T01:47:49.202Z,1.05
2022-08-29T01:52:42.795Z,0.98
2022-08-29T01:57:37.818Z,0.60
2022-08-29T02:02:30.206Z,0.80
2022-08-29T02:07:25.444Z,0.60
2022-08-29T02:12:17.592Z,0.60
2022-08-29T02:17:10.146Z,0.60
2022-08-29T02:22:02.692Z,0.70
2022-08-29T02:26:56.057Z,0.50
2022-08-29T02:31:47.813Z,0.57
2022-08-29T02:36:41.415Z,0.50
2022-08-29T02:41:33.391Z,0.60
2022-08-29T02:46:25.971Z,0.63
2022-08-29T02:51:24.183Z,0.50
2022-08-29T02:56:16.062Z,0.50
2022-08-29T03:01:08.051Z,0.65
2022-08-29T03:05:59.725Z,0.60
2022-08-29T03:10:51.399Z,0.43
2022-08-29T03:15:43.397Z,0.43
2022-08-29T03:20:37.063Z,0.50
2022-08-29T03:25:28.772Z,0.60
2022-08-29T03:30:21.209Z,0.60
2022-08-29T03:35:18.081Z,0.55
2022-08-29T03:40:10.678Z,0.52
2022-08-29T03:45:06.001Z,0.52
2022-08-29T03:49:57.610Z,0.50
2022-08-29T03:54:49.286Z,0.50
2022-08-29T03:59:40.888Z,0.50
2022-08-29T04:04:51.181Z,0.50
2022-08-29T04:09:42.840Z,0.68
2022-08-29T04:14:35.400Z,0.40
2022-08-29T04:19:27.106Z,0.47
2022-08-29T04:24:19.730Z,0.60
2022-08-29T04:29:12.926Z,0.50
2022-08-29T04:34:06.556Z,0.43
2022-08-29T04:38:58.226Z,0.45
2022-08-29T04:43:49.825Z,0.40
2022-08-29T04:48:41.426Z,0.40
2022-08-29T04:53:33.029Z,0.38
2022-08-29T04:58:25.393Z,0.50
2022-08-29T05:03:18.224Z,0.40
2022-08-29T05:08:09.922Z,0.40
2022-08-29T05:13:01.579Z,0.40
2022-08-29T05:17:54.379Z,0.50
2022-08-29T05:22:45.999Z,0.30
2022-08-29T05:27:40.160Z,0.40
2022-08-29T05:32:31.998Z,0.30
2022-08-29T05:37:23.818Z,0.40
2022-08-29T05:42:17.258Z,0.40
2022-08-29T05:47:12.146Z,0.50
2022-08-29T05:52:05.086Z,0.60
2022-08-29T05:56:57.137Z,0.50
2022-08-29T06:01:48.818Z,0.60
2022-08-29T06:06:41.298Z,0.65
2022-08-29T06:11:33.445Z,0.60
2022-08-29T06:16:28.752Z,0.95
2022-08-29T06:21:20.678Z,1.00
2022-08-29T06:26:13.398Z,1.00
2022-08-29T06:31:09.662Z,2.10
2022-08-29T06:36:01.608Z,1.13
2022-08-29T06:40:53.232Z,1.27
2022-08-29T06:45:44.881Z,1.50
2022-08-29T06:50:43.619Z,0.98
2022-08-29T06:55:38.047Z,1.27
2022-08-29T07:00:31.161Z,1.25
2022-08-29T07:05:23.960Z,1.23
2022-08-29T07:10:21.595Z,1.00
2022-08-29T07:15:14.277Z,0.80
2022-08-29T07:20:07.044Z,0.80
2022-08-29T07:24:58.713Z,1.00
2022-08-29T07:29:50.892Z,1.23
2022-08-29T07:34:42.555Z,1.00
2022-08-29T07:39:34.212Z,1.20
2022-08-29T07:44:26.533Z,1.67
2022-08-29T07:49:22.458Z,1.42
2022-08-29T07:54:17.033Z,1.85
2022-08-29T07:59:09.270Z,1.83
2022-08-29T08:04:01.039Z,1.75
2022-08-29T08:08:52.849Z,1.95
2022-08-29T08:13:44.713Z,2.40
2022-08-29T08:18:38.121Z,1.85
2022-08-29T08:23:29.869Z,1.67
2022-08-29T08:28:21.657Z,1.45
2022-08-29T08:33:13.316Z,1.23
2022-08-29T08:38:06.906Z,1.20
2022-08-29T08:43:02.752Z,1.08
2022-08-29T08:48:05.691Z,0.80
2022-08-29T08:53:04.378Z,0.63
2022-08-29T08:58:18.297Z,0.68
2022-08-29T09:03:25.876Z,0.88
2022-08-29T09:08:38.115Z,0.70
2022-08-29T09:14:06.192Z,0.70
2022-08-29T09:19:10.924Z,0.60
2022-08-29T09:24:08.957Z,0.60
2022-08-29T09:29:00.620Z,0.50
2022-08-29T09:33:56.915Z,0.50
2022-08-29T09:38:48.553Z,0.40
2022-08-29T09:43:40.172Z,0.40
2022-08-29T09:48:35.473Z,0.40
2022-08-29T09:53:27.637Z,0.40
2022-08-29T09:58:20.145Z,0.35
2022-08-29T10:03:21.789Z,0.30
2022-08-29T10:08:35.336Z,0.30
2022-08-29T10:13:35.389Z,0.30
2022-08-29T10:18:44.357Z,0.30
2022-08-29T10:24:01.397Z,0.30
2022-08-29T10:29:12.243Z,0.22
2022-08-29T10:34:21.984Z,0.30
2022-08-29T10:39:16.123Z,0.30
2022-08-29T10:44:39.496Z,0.40
2022-08-29T10:49:34.084Z,0.40
2022-08-29T10:55:11.110Z,0.60
2022-08-29T11:00:09.306Z,0.50
2022-08-29T11:05:11.317Z,0.60
2022-08-29T11:10:23.500Z,0.70
2022-08-29T11:15:31.554Z,0.50
2022-08-29T11:20:30.670Z,0.40
2022-08-29T11:25:22.717Z,0.40
2022-08-29T11:30:29.499Z,0.40
2022-08-29T11:35:45.717Z,0.30
2022-08-29T11:46:12.774Z,0.25
2022-08-29T11:51:40.797Z,0.20
2022-08-29T11:56:32.550Z,0.30
2022-08-29T12:01:36.089Z,0.40
2022-08-29T12:06:37.985Z,0.50
2022-08-29T12:12:12.734Z,0.47
2022-08-29T12:17:08.433Z,0.60
2022-08-29T12:22:01.172Z,0.90
2022-08-29T12:26:53.199Z,0.80
2022-08-29T12:32:18.203Z,0.80
2022-08-29T12:37:05.831Z,0.70
2022-08-29T12:42:25.134Z,0.95
2022-08-29T12:47:27.127Z,0.80
2022-08-29T12:52:26.939Z,0.80
2022-08-29T12:57:29.737Z,0.75
2022-08-29T13:02:24.486Z,0.60
2022-08-29T13:07:19.162Z,0.60
2022-08-29T13:12:25.569Z,0.60
2022-08-29T13:17:20.886Z,0.50
2022-08-29T13:22:14.428Z,0.60
2022-08-29T13:27:10.219Z,0.50
2022-08-29T13:32:14.139Z,0.30
2022-08-29T13:37:16.302Z,0.30
2022-08-29T13:42:21.888Z,0.30
2022-08-29T13:47:22.578Z,0.20
2022-08-29T13:52:14.957Z,0.30
2022-08-29T13:57:08.080Z,0.30
2022-08-29T14:02:09.905Z,0.50
2022-08-29T14:07:02.917Z,0.40
2022-08-29T14:11:54.616Z,0.30
2022-08-29T14:16:46.362Z,0.30
2022-08-29T14:21:38.122Z,0.30
2022-08-29T14:26:29.866Z,0.30
2022-08-29T14:31:21.585Z,0.30
2022-08-29T14:36:13.277Z,0.30
2022-08-29T14:41:05.202Z,0.30
2022-08-29T14:45:56.893Z,0.20
2022-08-29T14:50:48.672Z,0.22
2022-08-29T14:55:40.464Z,0.30
2022-08-29T15:00:34.074Z,0.30
2022-08-29T15:05:26.232Z,0.20
2022-08-29T15:10:20.253Z,0.22
2022-08-29T15:15:12.936Z,0.20
2022-08-29T15:25:18.221Z,0.20
2022-08-29T15:30:11.171Z,0.40
2022-08-29T15:35:03.020Z,0.30
2022-08-29T15:39:55.053Z,0.40
2022-08-29T15:44:46.727Z,0.40
2022-08-29T15:49:42.997Z,0.30
2022-08-29T15:54:36.082Z,0.30
2022-08-29T15:59:54.227Z,0.22
2022-08-29T16:04:44.843Z,0.30
2022-08-29T16:09:36.506Z,0.20
2022-08-29T16:14:58.089Z,0.20
2022-08-29T16:19:41.804Z,0.20
2022-08-29T16:24:33.752Z,0.10
2022-08-29T16:29:26.842Z,0.20
2022-08-29T16:34:18.772Z,0.20
2022-08-29T16:39:10.973Z,0.30
2022-08-29T16:44:03.662Z,0.20
2022-08-29T16:48:57.196Z,0.20
2022-08-29T16:53:49.452Z,0.30
2022-08-29T16:59:01.693Z,0.20
2022-08-29T17:03:53.423Z,0.32
2022-08-29T17:08:45.067Z,0.30
2022-08-29T17:13:38.803Z,0.50
2022-08-29T17:18:30.584Z,0.30
2022-08-29T17:23:22.581Z,0.47
2022-08-29T17:28:18.003Z,0.30
2022-08-29T17:33:11.996Z,0.30
2022-08-29T17:38:03.743Z,0.30
2022-08-29T17:42:55.909Z,0.30
2022-08-29T17:47:47.519Z,0.30
2022-08-29T17:52:39.418Z,0.32
2022-08-29T17:57:33.222Z,0.30
2022-08-29T18:02:25.322Z,0.30
2022-08-29T18:07:18.140Z,0.30
2022-08-29T18:12:10.190Z,0.30
2022-08-29T18:17:02.018Z,0.40
2022-08-29T18:21:53.971Z,0.40
2022-08-29T18:26:47.099Z,0.50
2022-08-29T18:31:39.847Z,0.50
2022-08-29T18:36:33.383Z,0.32
2022-08-29T18:41:25.429Z,0.40
2022-08-29T18:46:17.051Z,0.30
2022-08-29T18:51:08.674Z,0.47
2022-08-29T18:56:01.217Z,0.40
2022-08-29T19:00:54.429Z,0.30
2022-08-29T19:05:49.927Z,0.40
2022-08-29T19:10:42.782Z,0.38
2022-08-29T19:15:41.275Z,0.40
2022-08-29T19:20:52.781Z,0.40
2022-08-29T19:25:44.513Z,0.40
2022-08-29T19:30:38.221Z,0.40
2022-08-29T19:35:29.874Z,0.55
2022-08-29T19:40:21.829Z,0.40
2022-08-29T19:45:16.376Z,0.40
2022-08-29T19:50:11.835Z,0.40
2022-08-29T19:55:06.205Z,0.40
2022-08-29T19:59:57.832Z,0.40
2022-08-29T20:04:51.181Z,0.40
2022-08-29T20:09:42.799Z,0.40
2022-08-29T20:14:35.033Z,0.40
2022-08-29T20:19:27.037Z,0.30
2022-08-29T20:24:19.286Z,0.30
2022-08-29T20:29:12.138Z,0.22
2022-08-29T20:34:04.274Z,0.50
2022-08-29T20:38:56.019Z,0.30
2022-08-29T20:43:47.673Z,0.30
2022-08-29T20:48:39.421Z,0.30
2022-08-29T20:53:31.995Z,0.40
2022-08-29T20:58:24.198Z,0.40
2022-08-29T21:03:35.601Z,0.30
2022-08-29T21:08:27.893Z,0.30
2022-08-29T21:13:20.077Z,0.20
2022-08-29T21:18:14.402Z,0.40
2022-08-29T21:23:08.284Z,0.20
2022-08-29T21:27:59.998Z,0.20
2022-08-29T21:32:51.767Z,0.25
2022-08-29T21:37:43.422Z,0.15
2022-08-29T21:42:35.680Z,0.30
2022-08-29T21:47:28.480Z,0.30
2022-08-29T21:52:20.205Z,0.20
2022-08-29T21:57:19.432Z,0.40
2022-08-29T22:02:12.350Z,0.30
2022-08-29T22:07:04.303Z,0.25
2022-08-29T22:11:56.510Z,0.30
2022-08-29T22:16:48.169Z,0.30
2022-08-29T22:21:46.008Z,0.20
2022-08-29T22:31:31.909Z,0.30
2022-08-29T22:36:24.723Z,0.30
2022-08-29T22:41:20.768Z,0.30
2022-08-29T22:46:16.321Z,0.30
2022-08-29T22:51:37.491Z,0.30
2022-08-29T22:56:30.452Z,0.40
2022-08-29T23:01:22.133Z,0.40
2022-08-29T23:06:13.777Z,0.30
2022-08-29T23:11:05.657Z,0.30
2022-08-29T23:15:57.339Z,0.40
2022-08-29T23:20:49.017Z,0.30
2022-08-29T23:25:40.801Z,0.38
2022-08-29T23:30:32.701Z,0.20
2022-08-29T23:35:24.446Z,0.30
2022-08-29T23:40:18.524Z,0.30
2022-08-29T23:45:10.868Z,0.30
2022-08-29T23:50:03.879Z,0.25
2022-08-29T23:54:55.562Z,0.40
